Terminal Aerodrome Forecast
Issued by NWS Bismarck, ND

Home | Current Version | Previous Version | Text Only | Print | Product List | Glossary On
Versions: 1 2 3 4 5 6 7 8 9 10 11 12 13 14 15 16 17 18 19 20 21
184
FTUS43 KBIS 260638 AAA
TAFISN
TAF AMD
KISN 260638Z 2607/2706 28015KT P6SM BKN050
     FM261200 28013G21KT P6SM BKN025
     FM261600 29017G26KT P6SM SCT035 BKN050
     FM262000 30015G23KT P6SM SCT070
     FM270100 30010KT P6SM FEW070 SCT090=

USA.gov is the U.S. government's official web portal to all federal, state and local government web resources and services.